• Join FlightAware (Why Join?)
  • Login
  • US Flag 
10:02PM EDT


 

Airport Tracker/Info


-or-


 

Live Flight TrackerFlight Track Log ✈ SWA4448 ✈ 12-Apr-2013 ✈ KMKE - KPHX

Flight Track Log - Related Links

Times and Time Zones

All times are in EDT time to prevent confusion due to time zone crossing. See the SWA4448 flight status page for this flight to view local times or setup timezone preferences in your user account.

Time Position Orientation Groundspeed Altitude Reporting Facility
EDT Latitude Longitude Course Direction KTS MPH feet Rate Location/Type
12:02AM 42.9333 -87.9167 265° West 164 189 1,600  Level KMKE
12:05AM 42.9222 -88.0861 265° West 229 264 6,500 2,640 Climbing Chicago Center
12:06AM 42.9197 -88.1842 268° West 257 296 10,400 3,060 Climbing Chicago Center
12:07AM 42.9242 -88.2992 273° West 303 349 12,700 2,820 Climbing Chicago Center
12:08AM 42.9289 -88.4233 273° West 325 374 16,200 3,060 Climbing Chicago Center
12:09AM 42.9344 -88.5519 273° West 336 387 19,000 2,760 Climbing Chicago Center
12:10AM 42.9400 -88.6894 273° West 357 411 21,800 2,760 Climbing Chicago Center
12:11AM 42.9444 -88.8278 273° West 362 417 24,600 2,400 Climbing Chicago Center
12:12AM 42.9431 -88.9661 269° West 365 420 26,700 1,920 Climbing Chicago Center
12:13AM 42.9436 -89.1103 270° West 376 433 28,500 1,620 Climbing Chicago Center
12:14AM 42.9428 -89.2572 270° West 386 444 30,000 1,620 Climbing Chicago Center
12:15AM 42.9464 -89.4078 272° West 395 455 31,900 1,680 Climbing Chicago Center
12:16AM 42.9469 -89.5558 270° West 389 448 33,400 1,140 Climbing Chicago Center
12:17AM 42.9064 -89.6956 248° West 398 458 34,300 780 Climbing Chicago Center
12:18AM 42.8669 -89.8431 250° West 411 473 35,000 1,140 Climbing Chicago Center
12:19AM 42.8272 -89.9978 251° West 419 482 36,700 1,320 Climbing Chicago Center
12:20AM 42.7872 -90.1397 249° West 407 468 37,700 600 Climbing Chicago Center
12:21AM 42.7475 -90.2869 250° West 415 478 38,000 120 Climbing Chicago Center
12:22AM 42.7050 -90.4331 248° West 418 481 38,000  Level Chicago Center
12:23AM 42.6650 -90.5797 250° West 417 480 38,000  Level Chicago Center
12:24AM 42.6275 -90.7256 251° West 415 478 38,000  Level Chicago Center
12:25AM 42.5842 -90.8689 248° West 413 475 38,000  Level Chicago Center
12:26AM 42.5431 -91.0158 249° West 417 480 38,000  Level Chicago Center
12:27AM 42.5017 -91.1600 249° West 414 476 38,000  Level Chicago Center
12:28AM 42.4592 -91.3053 248° West 414 476 38,000  Level Chicago Center
12:29AM 42.4169 -91.4497 248° West 414 476 38,000  Level Chicago Center
12:30AM 42.3764 -91.5914 249° West 408 470 38,000  Level Chicago Center
12:31AM 42.3367 -91.7283 249° West 398 458 38,000  Level Chicago Center
12:32AM 42.2883 -91.8939 249° West 395 455 38,000  Level Chicago Center
12:33AM 42.2464 -92.0272 247° West 392 451 38,000  Level Chicago Center
12:34AM 42.2056 -92.1653 248° West 395 455 38,000  Level Chicago Center
12:35AM 42.1817 -92.2519 250° West 396 456 38,000  Level Minneapolis Center
12:36AM 42.1408 -92.3881 248° West 395 455 38,000  Level Minneapolis Center
12:36AM 42.1231 -92.4389 245° Southwest 397 457 38,000  Level Chicago Center
12:37AM 42.0825 -92.5772 248° West 398 458 38,000  Level Chicago Center
12:38AM 42.0497 -92.6889 248° West 397 457 38,000  Level Minneapolis Center
12:39AM 42.0083 -92.8250 248° West 395 455 38,000  Level Minneapolis Center
12:40AM 41.9669 -92.9614 248° West 397 457 38,000  Level Minneapolis Center
12:41AM 41.9267 -93.0906 247° West 395 455 38,000  Level Minneapolis Center
12:42AM 41.8850 -93.2242 247° West 393 452 38,000  Level Minneapolis Center
12:43AM 41.8439 -93.3567 247° West 390 449 38,000  Level Minneapolis Center
12:44AM 41.8011 -93.4933 247° West 396 456 38,000  Level Minneapolis Center
12:45AM 41.7592 -93.6253 247° West 393 452 38,000  Level Minneapolis Center
12:46AM 41.7156 -93.7622 247° West 400 460 38,000  Level Minneapolis Center
12:47AM 41.6731 -93.8981 247° West 401 461 38,000  Level Minneapolis Center
12:48AM 41.6314 -94.0350 248° West 400 460 38,000  Level Minneapolis Center
12:49AM 41.5675 -94.2294 246° West 409 471 38,000  Level Minneapolis Center
12:50AM 41.5228 -94.3653 246° West 416 479 38,000  Level Minneapolis Center
12:51AM 41.4772 -94.5061 247° West 413 475 38,000  Level Minneapolis Center
12:52AM 41.4308 -94.6481 246° West 416 479 38,000  Level Minneapolis Center
12:53AM 41.3861 -94.7894 247° West 413 475 38,000  Level Minneapolis Center
12:54AM 41.3400 -94.9283 246° West 411 473 38,000  Level Minneapolis Center
12:55AM 41.2933 -95.0683 246° West 411 473 38,000  Level Minneapolis Center
12:56AM 41.2472 -95.2081 246° West 412 474 38,000  Level Minneapolis Center
12:57AM 41.2006 -95.3486 246° West 414 476 38,000  Level Minneapolis Center
12:58AM 41.1536 -95.4878 246° West 412 474 38,000  Level Minneapolis Center
12:59AM 41.1058 -95.6278 246° West 413 475 38,000  Level Minneapolis Center
01:00AM 41.0597 -95.7661 246° West 410 472 38,000  Level Minneapolis Center
01:01AM 41.0111 -95.9050 245° Southwest 411 473 38,000  Level Minneapolis Center
01:02AM 40.9642 -96.0439 246° West 411 473 38,000  Level Minneapolis Center
01:03AM 40.9164 -96.1811 245° Southwest 409 471 38,000  Level Minneapolis Center
01:04AM 40.8692 -96.3164 245° Southwest 406 467 38,000  Level Minneapolis Center
01:05AM 40.8222 -96.4506 245° Southwest 402 463 38,000  Level Minneapolis Center
01:06AM 40.7772 -96.5831 246° West 398 458 38,000  Level Minneapolis Center
01:07AM 40.7311 -96.7161 245° Southwest 397 457 38,000  Level Minneapolis Center
01:08AM 40.6847 -96.8472 245° Southwest 395 455 38,000  Level Minneapolis Center
01:09AM 40.6375 -96.9778 245° Southwest 395 455 38,000  Level Minneapolis Center
01:10AM 40.5922 -97.1081 245° Southwest 393 452 38,000  Level Minneapolis Center
01:11AM 40.5444 -97.2372 244° Southwest 393 452 38,000  Level Minneapolis Center
01:12AM 40.4953 -97.3761 245° Southwest 388 447 38,000  Level Minneapolis Center
01:13AM 40.4500 -97.5039 245° Southwest 385 443 38,000  Level Minneapolis Center
01:14AM 40.4042 -97.6286 244° Southwest 380 437 38,000  Level Minneapolis Center
01:15AM 40.3564 -97.7536 243° Southwest 381 438 38,000  Level Minneapolis Center
01:16AM 40.3083 -97.8786 243° Southwest 382 440 38,000  Level Minneapolis Center
01:17AM 40.2697 -97.9775 243° Southwest 381 438 38,000  Level Minneapolis Center
01:18AM 40.2214 -98.1017 243° Southwest 381 438 38,000  Level Minneapolis Center
01:19AM 40.1725 -98.2278 243° Southwest 385 443 38,000  Level Minneapolis Center
01:20AM 40.1236 -98.3536 243° Southwest 386 444 38,000  Level Minneapolis Center
01:21AM 40.0739 -98.4783 243° Southwest 386 444 38,000  Level Minneapolis Center
01:22AM 40.0242 -98.6033 243° Southwest 387 445 38,000  Level Minneapolis Center
01:23AM 39.9744 -98.7289 243° Southwest 387 445 38,000  Level Minneapolis Center
01:24AM 39.9250 -98.8550 243° Southwest 389 448 38,000  Level Minneapolis Center
01:25AM 39.8742 -98.9808 242° Southwest 390 449 38,000  Level Minneapolis Center
01:26AM 39.8247 -99.1053 243° Southwest 388 447 38,000  Level Minneapolis Center
01:27AM 39.7742 -99.2292 242° Southwest 387 445 38,000  Level Minneapolis Center
01:28AM 39.7536 -99.2806 243° Southwest 389 448 38,000  Level Denver Center
01:29AM 39.7031 -99.4033 242° Southwest 385 443 38,000  Level Denver Center
01:30AM 39.6533 -99.5264 242° Southwest 385 443 38,000  Level Denver Center
01:31AM 39.6031 -99.6481 242° Southwest 383 441 38,000  Level Denver Center
01:32AM 39.5514 -99.7739 242° Southwest 391 450 38,000  Level Denver Center
01:33AM 39.5003 -99.8986 242° Southwest 392 451 38,000  Level Denver Center
01:34AM 39.4547 -100.0081 242° Southwest 387 445 38,000  Level Denver Center
01:35AM 39.3964 -100.1456 241° Southwest 388 447 38,000  Level Denver Center
01:36AM 39.3456 -100.2653 241° Southwest 393 452 38,000  Level Denver Center
01:37AM 39.2964 -100.3856 242° Southwest 399 459 38,000  Level Denver Center
01:38AM 39.2467 -100.5031 241° Southwest 392 451 38,000  Level Denver Center
01:39AM 39.1875 -100.6411 241° Southwest 391 450 38,000  Level Denver Center
01:40AM 39.1389 -100.7569 242° Southwest 387 445 38,000  Level Denver Center
01:41AM 39.0894 -100.8714 241° Southwest 384 442 38,000  Level Denver Center
01:42AM 39.0319 -101.0081 242° Southwest 387 445 38,000  Level Denver Center
01:43AM 38.9819 -101.1211 240° Southwest 392 451 38,000  Level Denver Center
01:44AM 38.9322 -101.2386 241° Southwest 392 451 38,000  Level Denver Center
01:45AM 38.8722 -101.3767 241° Southwest 396 456 38,000  Level Denver Center
01:46AM 38.8211 -101.4956 241° Southwest 398 458 38,000  Level Denver Center
01:47AM 38.7683 -101.6150 240° Southwest 401 461 38,000  Level Denver Center
01:48AM 38.7081 -101.7531 241° Southwest 400 460 38,000  Level Denver Center
01:49AM 38.6558 -101.8717 241° Southwest 401 461 38,000  Level Denver Center
01:50AM 38.6036 -101.9881 240° Southwest 398 458 38,000  Level Denver Center
01:51AM 38.5431 -102.1250 241° Southwest 396 456 38,000  Level Denver Center
01:52AM 38.4906 -102.2419 240° Southwest 397 457 38,000  Level Denver Center
01:53AM 38.4383 -102.3586 240° Southwest 397 457 38,000  Level Denver Center
01:54AM 38.3781 -102.4964 241° Southwest 399 459 38,000  Level Denver Center
01:55AM 38.3239 -102.6150 240° Southwest 404 465 38,000  Level Denver Center
01:56AM 38.2703 -102.7322 240° Southwest 401 461 38,000  Level Denver Center
01:57AM 38.2094 -102.8692 241° Southwest 400 460 38,000  Level Denver Center
01:58AM 38.1553 -102.9864 240° Southwest 401 461 38,000  Level Denver Center
01:59AM 38.1022 -103.1036 240° Southwest 399 459 38,000  Level Denver Center
02:00AM 38.0436 -103.2297 239° Southwest 402 463 38,000  Level Denver Center
02:01AM 37.9900 -103.3475 240° Southwest 403 464 38,000  Level Denver Center
02:02AM 37.9272 -103.4839 240° Southwest 402 463 38,000  Level Denver Center
02:03AM 37.8733 -103.5992 239° Southwest 400 460 38,000 180 Level Denver Center
02:04AM 37.8197 -103.7161 240° Southwest 402 463 38,400 840 Climbing Denver Center
02:05AM 37.7553 -103.8525 239° Southwest 403 464 39,800 780 Climbing Denver Center
02:06AM 37.7017 -103.9669 239° Southwest 399 459 40,000 60 Climbing Denver Center
02:07AM 37.6469 -104.0803 239° Southwest 403 464 40,000  Level Denver Center
02:08AM 37.5847 -104.2117 239° Southwest 399 459 40,000  Level Denver Center
02:09AM 37.5211 -104.3458 239° Southwest 403 464 40,000  Level Denver Center
02:10AM 37.4567 -104.4808 239° Southwest 404 465 40,000  Level Denver Center
02:11AM 37.4003 -104.5975 239° Southwest 407 468 40,000  Level Denver Center
02:12AM 37.3464 -104.7119 239° Southwest 401 461 40,000  Level Denver Center
02:13AM 37.2817 -104.8453 239° Southwest 401 461 40,000  Level Denver Center
02:14AM 37.2250 -104.9597 238° Southwest 402 463 40,000  Level Denver Center
02:15AM 37.1708 -105.0742 239° Southwest 400 460 40,000  Level Denver Center
02:16AM 37.1144 -105.1886 238° Southwest 403 464 40,000  Level Denver Center
02:17AM 37.0481 -105.3228 238° Southwest 406 467 40,000  Level Denver Center
02:18AM 36.9925 -105.4375 239° Southwest 404 465 40,000  Level Denver Center
02:19AM 36.9344 -105.5522 238° Southwest 408 470 40,000  Level Denver Center
02:20AM 36.8961 -105.6467 243° Southwest 411 473 40,000  Level Albuquerque Center
02:20AM 36.8686 -105.6897 231° Southwest 412 474 40,000  Level Denver Center
02:21AM 36.8086 -105.8067 237° Southwest 419 482 40,000  Level Denver Center
02:22AM 36.7456 -105.9383 239° Southwest 416 479 40,000  Level Denver Center
02:23AM 36.6931 -106.0406 237° Southwest 423 487 40,000  Level Denver Center
02:24AM 36.6317 -106.1622 238° Southwest 418 481 40,000  Level Denver Center
02:25AM 36.5872 -106.2542 239° Southwest 418 481 40,000  Level Albuquerque Center
02:26AM 36.5267 -106.3708 237° Southwest 419 482 40,000  Level Albuquerque Center
02:27AM 36.4583 -106.5097 239° Southwest 421 484 40,000  Level Albuquerque Center
02:28AM 36.3983 -106.6272 238° Southwest 421 484 40,000  Level Albuquerque Center
02:28AM 36.3783 -106.6658 237° Southwest 423 487 40,000  Level Denver Center
02:29AM 36.3383 -106.7439 238° Southwest 419 482 40,000  Level Albuquerque Center
02:30AM 36.2689 -106.8806 238° Southwest 418 481 40,000  Level Albuquerque Center
02:31AM 36.2081 -106.9972 237° Southwest 419 482 40,000  Level Albuquerque Center
02:32AM 36.1475 -107.1144 237° Southwest 416 479 40,000  Level Albuquerque Center
02:33AM 36.0883 -107.2281 237° Southwest 417 480 40,000  Level Albuquerque Center
02:34AM 36.0183 -107.3636 237° Southwest 418 481 40,000  Level Albuquerque Center
02:35AM 35.9569 -107.4822 237° Southwest 424 488 40,000  Level Albuquerque Center
02:36AM 35.8953 -107.5994 237° Southwest 426 490 40,000  Level Albuquerque Center
02:37AM 35.8225 -107.7389 237° Southwest 429 494 40,000  Level Albuquerque Center
02:38AM 35.7594 -107.8575 237° Southwest 431 496 40,000  Level Albuquerque Center
02:39AM 35.6972 -107.9761 237° Southwest 430 495 40,000  Level Albuquerque Center
02:40AM 35.6347 -108.0939 237° Southwest 429 494 40,000  Level Albuquerque Center
02:41AM 35.5619 -108.2328 237° Southwest 430 495 40,000  Level Albuquerque Center
02:42AM 35.4986 -108.3506 237° Southwest 430 495 40,000  Level Albuquerque Center
02:43AM 35.4350 -108.4675 236° Southwest 429 494 40,000  Level Albuquerque Center
02:44AM 35.3725 -108.5844 237° Southwest 428 493 40,000  Level Albuquerque Center
02:45AM 35.2992 -108.7203 237° Southwest 427 491 40,000  Level Albuquerque Center
02:46AM 35.2358 -108.8383 237° Southwest 429 494 40,000  Level Albuquerque Center
02:47AM 35.1717 -108.9547 236° Southwest 431 496 40,000  Level Albuquerque Center
02:48AM 35.0969 -109.0931 237° Southwest 434 499 40,000  Level Albuquerque Center
02:49AM 35.0314 -109.2089 235° Southwest 433 498 40,000  Level Albuquerque Center
02:50AM 34.9681 -109.3289 237° Southwest 435 501 40,000  Level Albuquerque Center
02:51AM 34.9033 -109.4464 236° Southwest 436 502 40,000  Level Albuquerque Center
02:52AM 34.8239 -109.5806 234° Southwest 437 503 40,000  Level Albuquerque Center
02:53AM 34.7586 -109.6997 236° Southwest 439 505 40,000 -120 Level Albuquerque Center
02:54AM 34.6919 -109.8167 235° Southwest 440 506 39,800 -900 Descending Albuquerque Center
02:55AM 34.6106 -109.9536 234° Southwest 445 512 38,200 -2,100 Descending Albuquerque Center
02:56AM 34.5394 -110.0736 234° Southwest 455 524 35,600 -2,100 Descending Albuquerque Center
02:57AM 34.4694 -110.1908 234° Southwest 450 518 34,000 -1,800 Descending Albuquerque Center
02:58AM 34.4017 -110.3036 234° Southwest 440 506 32,000 -2,160 Descending Albuquerque Center
02:59AM 34.3361 -110.4156 235° Southwest 434 499 29,700 -2,340 Descending Albuquerque Center
03:00AM 34.2617 -110.5381 234° Southwest 426 490 27,400 -2,220 Descending Albuquerque Center
03:01AM 34.1933 -110.6475 233° Southwest 415 478 25,300 -2,100 Descending Albuquerque Center
03:02AM 34.1328 -110.7483 234° Southwest 401 461 23,300 -2,100 Descending Albuquerque Center
03:03AM 34.0825 -110.8867 246° West 381 438 21,100 -1,980 Descending Albuquerque Center
03:04AM 34.0444 -110.9969 247° West 364 419 19,400 -1,800 Descending Albuquerque Center
03:05AM 34.0097 -111.1022 248° West 347 399 17,600 -1,740 Descending Albuquerque Center
03:06AM 33.9564 -111.1886 233° Southwest 323 372 15,900 -1,740 Descending Albuquerque Center
03:07AM 33.8961 -111.2683 228° Southwest 322 371 14,200 -1,680 Descending Albuquerque Center
03:08AM 33.8392 -111.3467 229° Southwest 312 359 12,600 -1,200 Descending Albuquerque Center
03:09AM 33.7933 -111.4083 228° Southwest 308 354 12,000 -420 Descending Albuquerque Center
03:10AM 33.7358 -111.4867 229° Southwest 310 357 11,900 -600 Descending Albuquerque Center
03:11AM 33.6844 -111.5692 233° Southwest 307 353 10,800 -1,080 Descending Albuquerque Center
03:12AM 33.6328 -111.6486 232° Southwest 301 346 9,800 -1,020 Descending Albuquerque Center
03:13AM 33.5825 -111.7256 232° Southwest 293 337 8,800 -1,200 Descending Albuquerque Center
03:14AM 33.5503 -111.8094 245° Southwest 279 321 7,400 -1,440 Descending Albuquerque Center
03:15AM 33.5256 -111.8964 251° West 275 316 5,900 -1,440 Descending Albuquerque Center
03:16AM 33.5047 -111.9822 254° West 269 310 4,600 -960 Descending Albuquerque Center
03:17AM 33.4964 -112.0656 263° West 250 288 4,000 -300 Descending Albuquerque Center
03:18AM 33.4872 -112.1289 260° West 195 224 4,000 -660 Level Albuquerque Center
03:19AM 33.4436 -112.1278 179° South 162 186 2,700 -1,020 Descending Albuquerque Center
03:20AM 33.4303 -112.0811 109° East 157 181 2,000 -720 Descending Albuquerque Center
03:21AM 33.4311 -112.0333 89° East 148 170 1,300 -720 Descending Albuquerque Center